createdAt,value
2019-05-15T00:00:52.313Z,796.53
2019-05-15T00:01:52.321Z,796.54
2019-05-15T00:02:52.300Z,796.51
2019-05-15T00:03:52.298Z,796.58
2019-05-15T00:04:52.276Z,796.58
2019-05-15T00:05:52.253Z,796.59
2019-05-15T00:06:52.259Z,796.61
2019-05-15T00:07:52.251Z,796.64
2019-05-15T00:08:52.262Z,796.64
2019-05-15T00:09:52.221Z,796.68
2019-05-15T00:10:52.228Z,796.73
2019-05-15T00:11:52.193Z,796.76
2019-05-15T00:12:52.200Z,796.79
2019-05-15T00:13:52.199Z,796.80
2019-05-15T00:14:52.161Z,796.84
2019-05-15T00:15:52.156Z,796.86
2019-05-15T00:16:52.135Z,796.86
2019-05-15T00:17:52.142Z,796.90
2019-05-15T00:18:52.150Z,796.93
2019-05-15T00:19:52.113Z,796.95
2019-05-15T00:20:52.124Z,796.95
2019-05-15T00:21:52.111Z,796.97
2019-05-15T00:22:52.086Z,797.03
2019-05-15T00:23:52.088Z,797.04
2019-05-15T00:24:52.084Z,797.09
2019-05-15T00:25:52.042Z,797.10
2019-05-15T00:26:52.064Z,797.12
2019-05-15T00:27:52.029Z,797.16
2019-05-15T00:28:52.016Z,797.15
2019-05-15T00:29:52.037Z,797.20
2019-05-15T00:30:51.983Z,797.24
2019-05-15T00:31:51.992Z,797.31
2019-05-15T00:32:51.987Z,797.38
2019-05-15T00:33:51.958Z,797.44
2019-05-15T00:34:51.959Z,797.51
2019-05-15T00:35:51.940Z,797.58
2019-05-15T00:36:51.923Z,797.63
2019-05-15T00:37:51.917Z,797.64
2019-05-15T00:38:51.899Z,797.69
2019-05-15T00:39:51.907Z,797.71
2019-05-15T00:40:51.888Z,797.76
2019-05-15T00:41:54.791Z,797.73
2019-05-15T00:42:51.857Z,797.76
2019-05-15T00:43:51.858Z,797.78
2019-05-15T00:44:51.846Z,797.77
2019-05-15T00:45:51.837Z,797.80
2019-05-15T00:46:51.818Z,797.77
2019-05-15T00:47:51.796Z,797.80
2019-05-15T00:48:51.794Z,797.87
2019-05-15T00:49:51.805Z,797.90
2019-05-15T00:50:51.800Z,797.85
2019-05-15T00:51:51.765Z,797.81
2019-05-15T00:52:51.759Z,797.85
2019-05-15T00:53:51.733Z,797.89
2019-05-15T00:54:51.756Z,797.90
2019-05-15T00:55:51.720Z,797.89
2019-05-15T00:56:51.699Z,797.81
2019-05-15T00:57:51.695Z,797.74
2019-05-15T00:58:51.706Z,797.74
2019-05-15T00:59:51.687Z,797.73
2019-05-15T01:00:51.685Z,797.73
2019-05-15T01:01:51.677Z,797.67
2019-05-15T01:04:00.905Z,797.79
2019-05-15T01:05:01.862Z,797.73
2019-05-15T01:06:01.828Z,797.73
2019-05-15T01:07:01.814Z,797.75
2019-05-15T01:08:01.801Z,797.69
2019-05-15T01:09:01.770Z,797.65
2019-05-15T01:10:01.788Z,797.64
2019-05-15T01:11:01.750Z,797.64
2019-05-15T01:12:01.755Z,797.66
2019-05-15T01:13:01.735Z,797.66
2019-05-15T01:14:01.736Z,797.68
2019-05-15T01:15:01.738Z,797.69
2019-05-15T01:16:01.702Z,797.72
2019-05-15T01:17:01.694Z,797.71
2019-05-15T01:18:01.689Z,797.69
2019-05-15T01:19:01.670Z,797.69
2019-05-15T01:20:01.700Z,797.71
2019-05-15T01:21:01.645Z,797.69
2019-05-15T01:22:01.642Z,797.71
2019-05-15T01:23:01.619Z,797.71
2019-05-15T01:24:01.629Z,797.73
2019-05-15T01:25:01.631Z,797.70
2019-05-15T01:26:01.587Z,797.72
2019-05-15T01:27:01.579Z,797.73
2019-05-15T01:28:01.581Z,797.77
2019-05-15T01:29:01.556Z,797.86
2019-05-15T01:30:01.555Z,797.90
2019-05-15T01:31:01.547Z,797.96
2019-05-15T01:32:01.533Z,798.02
2019-05-15T01:33:01.514Z,798.10
2019-05-15T01:34:01.509Z,798.05
2019-05-15T01:35:01.501Z,798.04
2019-05-15T01:36:01.513Z,798.05
2019-05-15T01:37:01.476Z,798.03
2019-05-15T01:38:01.458Z,798.05
2019-05-15T01:39:01.447Z,798.08
2019-05-15T01:40:01.458Z,798.10
2019-05-15T01:41:01.438Z,798.10
2019-05-15T01:42:01.412Z,798.08
2019-05-15T01:43:01.397Z,798.11
2019-05-15T01:44:01.414Z,798.08
2019-05-15T01:45:01.378Z,798.08
2019-05-15T01:46:01.391Z,798.06
2019-05-15T01:47:01.370Z,798.10
2019-05-15T01:48:01.347Z,798.12
2019-05-15T01:49:01.349Z,798.11
2019-05-15T01:50:01.336Z,798.15
2019-05-15T01:51:01.648Z,798.24
2019-05-15T01:52:01.298Z,798.28
2019-05-15T01:53:01.305Z,798.29
2019-05-15T01:54:01.298Z,798.33
2019-05-15T01:55:01.284Z,798.31
2019-05-15T01:56:01.286Z,798.34
2019-05-15T01:57:01.253Z,798.37
2019-05-15T01:58:01.262Z,798.42
2019-05-15T01:59:01.244Z,798.42
2019-05-15T02:00:01.258Z,798.47
2019-05-15T02:01:01.242Z,798.47
2019-05-15T02:02:01.214Z,798.52
2019-05-15T02:03:01.194Z,798.55
2019-05-15T02:04:01.190Z,798.62
2019-05-15T02:05:01.172Z,798.60
2019-05-15T02:06:01.176Z,798.59
2019-05-15T02:07:01.208Z,798.59
2019-05-15T02:08:01.136Z,798.63
2019-05-15T02:09:01.117Z,798.59
2019-05-15T02:10:01.144Z,798.64
2019-05-15T02:11:01.128Z,798.61
2019-05-15T02:12:01.082Z,798.61
2019-05-15T02:13:01.083Z,798.54
2019-05-15T02:14:01.110Z,798.51
2019-05-15T02:15:01.065Z,798.54
2019-05-15T02:16:01.083Z,798.57
2019-05-15T02:17:01.036Z,798.62
2019-05-15T02:18:01.023Z,798.69
2019-05-15T02:19:01.014Z,798.71
2019-05-15T02:20:01.013Z,798.73
2019-05-15T02:21:01.008Z,798.81
2019-05-15T02:22:00.996Z,798.88
2019-05-15T02:23:00.983Z,798.94
2019-05-15T02:24:00.955Z,798.98
2019-05-15T02:25:00.953Z,799.06
2019-05-15T02:26:00.933Z,799.10
2019-05-15T02:27:00.953Z,799.11
2019-05-15T02:28:00.924Z,799.16
2019-05-15T02:29:00.902Z,799.21
2019-05-15T02:30:15.966Z,799.23
2019-05-15T02:31:00.897Z,799.27
2019-05-15T02:32:00.895Z,799.28
2019-05-15T02:33:00.868Z,799.29
2019-05-15T02:34:00.854Z,799.28
2019-05-15T02:35:00.859Z,799.26
2019-05-15T02:36:00.839Z,799.25
2019-05-15T02:37:00.875Z,799.23
2019-05-15T02:38:00.822Z,799.24
2019-05-15T02:39:00.797Z,799.27
2019-05-15T02:40:00.800Z,799.31
2019-05-15T02:41:00.779Z,799.36
2019-05-15T02:42:00.789Z,799.38
2019-05-15T02:43:00.760Z,799.40
2019-05-15T02:44:00.749Z,799.39
2019-05-15T02:45:00.735Z,799.37
2019-05-15T02:46:00.916Z,799.33
2019-05-15T02:47:00.728Z,799.37
2019-05-15T02:48:00.715Z,799.43
2019-05-15T02:49:00.691Z,799.43
2019-05-15T02:50:00.689Z,799.45
2019-05-15T02:51:00.670Z,799.43
2019-05-15T02:52:00.679Z,799.44
2019-05-15T02:53:00.855Z,799.46
2019-05-15T02:54:00.648Z,799.51
2019-05-15T02:55:00.648Z,799.44
2019-05-15T02:56:00.622Z,799.41
2019-05-15T02:57:00.635Z,799.42
2019-05-15T02:58:00.605Z,799.41
2019-05-15T02:59:00.585Z,799.41
2019-05-15T03:00:00.574Z,799.42
2019-05-15T03:01:00.567Z,799.44
2019-05-15T03:02:00.585Z,799.46
2019-05-15T03:03:00.546Z,799.47
2019-05-15T03:05:09.822Z,799.61
2019-05-15T03:06:10.738Z,799.48
2019-05-15T03:07:10.716Z,799.51
2019-05-15T03:08:10.725Z,799.52
2019-05-15T03:09:10.690Z,799.58
2019-05-15T03:10:10.679Z,799.56
2019-05-15T03:11:10.664Z,799.57
2019-05-15T03:12:10.662Z,799.62
2019-05-15T03:13:10.641Z,799.64
2019-05-15T03:14:10.639Z,799.66
2019-05-15T03:15:10.620Z,799.71
2019-05-15T03:16:10.612Z,799.71
2019-05-15T03:17:10.621Z,799.88
2019-05-15T03:18:10.609Z,799.90
2019-05-15T03:19:10.573Z,799.94
2019-05-15T03:20:11.248Z,799.90
2019-05-15T03:21:10.551Z,799.90
2019-05-15T03:22:10.580Z,799.92
2019-05-15T03:23:10.544Z,799.97
2019-05-15T03:24:10.529Z,800.00
2019-05-15T03:25:11.168Z,800.04
2019-05-15T03:26:10.499Z,800.01
2019-05-15T03:27:10.510Z,800.01
2019-05-15T03:28:11.135Z,800.00
2019-05-15T03:29:10.488Z,800.05
2019-05-15T03:30:14.123Z,800.01
2019-05-15T03:31:32.684Z,799.97
2019-05-15T03:32:25.118Z,799.98
2019-05-15T03:33:18.951Z,800.00
2019-05-15T03:34:20.695Z,799.98
2019-05-15T03:35:14.434Z,799.99
2019-05-15T03:36:13.253Z,800.02
2019-05-15T03:37:12.080Z,800.06
2019-05-15T03:38:10.499Z,800.11
2019-05-15T03:39:10.366Z,800.10
2019-05-15T03:40:10.942Z,800.12
2019-05-15T03:41:10.751Z,800.11
2019-05-15T03:42:10.327Z,800.08
2019-05-15T03:43:10.354Z,800.04
2019-05-15T03:44:10.309Z,799.96
2019-05-15T03:45:10.667Z,799.93
2019-05-15T03:46:10.288Z,799.96
2019-05-15T03:47:10.276Z,799.94
2019-05-15T03:48:10.285Z,799.90
2019-05-15T03:49:10.272Z,799.88
2019-05-15T03:50:10.293Z,799.86
2019-05-15T03:51:10.230Z,799.83
2019-05-15T03:52:10.254Z,799.77
2019-05-15T03:53:10.811Z,799.71
2019-05-15T03:54:10.223Z,799.66
2019-05-15T03:55:11.245Z,799.65
2019-05-15T03:56:10.177Z,799.67
2019-05-15T03:57:10.189Z,799.65
2019-05-15T03:58:10.529Z,799.62
2019-05-15T03:59:10.170Z,799.65
2019-05-15T04:00:10.334Z,799.68
2019-05-15T04:01:28.559Z,799.68
2019-05-15T04:02:10.131Z,799.70
2019-05-15T04:03:11.174Z,799.68
2019-05-15T04:04:10.116Z,799.64
2019-05-15T04:05:11.921Z,799.61
2019-05-15T04:06:10.445Z,799.61
2019-05-15T04:07:10.068Z,799.56
2019-05-15T04:08:11.262Z,799.55
2019-05-15T04:09:10.043Z,799.56
2019-05-15T04:10:10.462Z,799.61
2019-05-15T04:11:10.014Z,799.59
2019-05-15T04:12:10.024Z,799.59
2019-05-15T04:13:10.146Z,799.52
2019-05-15T04:14:10.355Z,799.50
2019-05-15T04:15:10.575Z,799.45
2019-05-15T04:16:10.488Z,799.41
2019-05-15T04:17:09.957Z,799.39
2019-05-15T04:18:10.046Z,799.37
2019-05-15T04:19:10.100Z,799.32
2019-05-15T04:20:10.327Z,799.28
2019-05-15T04:21:09.923Z,799.27
2019-05-15T04:22:09.906Z,799.25
2019-05-15T04:23:10.582Z,799.25
2019-05-15T04:24:09.890Z,799.21
2019-05-15T04:25:10.311Z,799.17
2019-05-15T04:26:09.858Z,799.08
2019-05-15T04:27:10.910Z,799.02
2019-05-15T04:28:10.147Z,798.95
2019-05-15T04:29:09.972Z,798.98
2019-05-15T04:30:10.911Z,798.97
2019-05-15T04:31:09.803Z,798.97
2019-05-15T04:32:10.870Z,798.91
2019-05-15T04:33:10.126Z,798.92
2019-05-15T04:34:09.811Z,798.95
2019-05-15T04:35:10.104Z,798.94
2019-05-15T04:36:10.151Z,798.89
2019-05-15T04:37:09.737Z,798.86
2019-05-15T04:38:09.935Z,798.86
2019-05-15T04:39:10.090Z,798.77
2019-05-15T04:40:10.037Z,798.70
2019-05-15T04:41:10.091Z,798.71
2019-05-15T04:42:09.692Z,798.70
2019-05-15T04:43:10.785Z,798.66
2019-05-15T04:44:10.479Z,798.65
2019-05-15T04:45:10.488Z,798.65
2019-05-15T04:46:10.201Z,798.64
2019-05-15T04:47:10.017Z,798.66
2019-05-15T04:48:10.462Z,798.66
2019-05-15T04:49:09.649Z,798.60
2019-05-15T04:50:09.729Z,798.60
2019-05-15T04:51:10.077Z,798.56
2019-05-15T04:52:10.430Z,798.49
2019-05-15T04:53:10.943Z,798.48
2019-05-15T04:54:09.897Z,798.39
2019-05-15T04:55:10.499Z,798.38
2019-05-15T04:56:09.868Z,798.33
2019-05-15T04:57:09.600Z,798.34
2019-05-15T04:58:10.228Z,798.35
2019-05-15T04:59:10.279Z,798.32
2019-05-15T05:00:10.035Z,798.16
2019-05-15T05:01:09.802Z,798.04
2019-05-15T05:02:25.561Z,797.95
2019-05-15T05:03:09.987Z,797.82
2019-05-15T05:04:09.642Z,797.64
2019-05-15T05:06:19.171Z,797.37
2019-05-15T05:07:19.613Z,797.19
2019-05-15T05:08:20.366Z,797.11
2019-05-15T05:09:19.969Z,796.98
2019-05-15T05:10:19.794Z,796.94
2019-05-15T05:11:23.661Z,796.91
2019-05-15T05:12:19.599Z,796.84
2019-05-15T05:13:20.284Z,796.69
2019-05-15T05:14:19.551Z,796.48
2019-05-15T05:15:19.535Z,796.41
2019-05-15T05:16:19.511Z,796.25
2019-05-15T05:17:19.739Z,796.08
2019-05-15T05:18:19.680Z,796.02
2019-05-15T05:19:19.782Z,795.96
2019-05-15T05:20:19.493Z,795.87
2019-05-15T05:21:19.466Z,795.71
2019-05-15T05:22:19.454Z,795.68
2019-05-15T05:23:19.647Z,795.80
2019-05-15T05:24:19.447Z,795.86
2019-05-15T05:25:21.371Z,795.75
2019-05-15T05:26:20.384Z,795.72
2019-05-15T05:27:19.401Z,795.67
2019-05-15T05:28:19.398Z,795.40
2019-05-15T05:29:19.395Z,795.30
2019-05-15T05:30:19.364Z,795.40
2019-05-15T05:31:19.359Z,795.49
2019-05-15T05:32:30.867Z,795.39
2019-05-15T05:33:19.335Z,795.21
2019-05-15T05:34:19.534Z,795.11
2019-05-15T05:35:19.311Z,794.99
2019-05-15T05:36:19.300Z,795.13
2019-05-15T05:37:19.302Z,795.17
2019-05-15T05:38:19.645Z,795.13
2019-05-15T05:39:20.051Z,794.97
2019-05-15T05:40:19.271Z,795.16
2019-05-15T05:41:19.240Z,795.03
2019-05-15T05:42:19.497Z,795.03
2019-05-15T05:43:19.265Z,795.13
2019-05-15T05:44:19.258Z,795.12
2019-05-15T05:45:19.204Z,795.23
2019-05-15T05:46:19.212Z,795.18
2019-05-15T05:47:19.213Z,794.99
2019-05-15T05:48:19.449Z,794.85
2019-05-15T05:49:19.187Z,794.73
2019-05-15T05:50:19.171Z,794.75
2019-05-15T05:51:19.293Z,794.78
2019-05-15T05:52:19.122Z,794.71
2019-05-15T05:53:21.327Z,794.78
2019-05-15T05:54:19.111Z,794.72
2019-05-15T05:55:19.148Z,794.71
2019-05-15T05:56:19.148Z,794.75
2019-05-15T05:57:19.479Z,794.65
2019-05-15T05:58:19.786Z,794.55
2019-05-15T05:59:19.054Z,794.61
2019-05-15T06:00:19.045Z,794.77
2019-05-15T06:01:19.075Z,794.74
2019-05-15T06:02:19.051Z,794.77
2019-05-15T06:03:19.913Z,794.70
2019-05-15T06:04:18.995Z,794.68
2019-05-15T06:05:19.336Z,794.69
2019-05-15T06:06:18.982Z,794.71
2019-05-15T06:07:18.977Z,794.69
2019-05-15T06:08:19.878Z,794.50
2019-05-15T06:09:18.951Z,794.51
2019-05-15T06:10:18.952Z,794.52
2019-05-15T06:11:19.076Z,794.68
2019-05-15T06:12:19.064Z,794.74
2019-05-15T06:13:18.977Z,794.81
2019-05-15T06:14:18.889Z,794.80
2019-05-15T06:15:18.938Z,794.85
2019-05-15T06:16:19.110Z,795.00
2019-05-15T06:17:19.195Z,794.89
2019-05-15T06:18:19.914Z,794.85
2019-05-15T06:19:18.841Z,794.80
2019-05-15T06:20:18.835Z,794.85
2019-05-15T06:21:18.841Z,794.75
2019-05-15T06:22:18.965Z,794.70
2019-05-15T06:23:23.516Z,794.77
2019-05-15T06:24:18.797Z,794.78
2019-05-15T06:25:19.785Z,794.67
2019-05-15T06:26:19.705Z,794.40
2019-05-15T06:27:19.992Z,794.44
2019-05-15T06:28:19.881Z,794.49
2019-05-15T06:29:18.722Z,794.36
2019-05-15T06:30:26.420Z,794.41
2019-05-15T06:31:19.101Z,794.38
2019-05-15T06:32:19.457Z,794.29
2019-05-15T06:33:19.085Z,794.33
2019-05-15T06:34:18.665Z,794.25
2019-05-15T06:35:19.369Z,794.24
2019-05-15T06:36:18.647Z,794.14
2019-05-15T06:37:19.723Z,794.21
2019-05-15T06:38:19.249Z,794.21
2019-05-15T06:39:18.608Z,794.16
2019-05-15T06:40:18.638Z,794.00
2019-05-15T06:41:18.594Z,794.08
2019-05-15T06:42:18.938Z,793.95
2019-05-15T06:43:19.424Z,793.86
2019-05-15T06:44:18.932Z,793.92
2019-05-15T06:45:18.973Z,793.78
2019-05-15T06:46:18.878Z,793.77
2019-05-15T06:47:18.545Z,793.68
2019-05-15T06:48:19.025Z,793.79
2019-05-15T06:49:18.516Z,793.71
2019-05-15T06:50:18.499Z,793.72
2019-05-15T06:51:18.537Z,793.60
2019-05-15T06:52:18.549Z,793.49
2019-05-15T06:53:19.706Z,793.38
2019-05-15T06:54:19.045Z,793.34
2019-05-15T06:55:19.500Z,793.16
2019-05-15T06:56:19.404Z,793.21
2019-05-15T06:57:18.602Z,793.32
2019-05-15T06:58:19.675Z,793.22
2019-05-15T06:59:18.399Z,793.25
2019-05-15T07:00:19.172Z,793.16
2019-05-15T07:01:19.040Z,793.37
2019-05-15T07:02:19.038Z,793.36
2019-05-15T07:03:25.530Z,793.31
2019-05-15T07:04:18.367Z,793.20
2019-05-15T07:05:18.491Z,793.05
2019-05-15T07:07:28.739Z,793.13
2019-05-15T07:08:28.910Z,792.89
2019-05-15T07:09:28.686Z,792.80
2019-05-15T07:10:28.815Z,792.63
2019-05-15T07:11:28.475Z,792.64
2019-05-15T07:12:28.475Z,792.51
2019-05-15T07:13:29.009Z,792.36
2019-05-15T07:14:28.859Z,792.29
2019-05-15T07:15:28.420Z,792.36
2019-05-15T07:16:28.604Z,792.34
2019-05-15T07:17:28.826Z,792.26
2019-05-15T07:18:28.575Z,792.31
2019-05-15T07:19:28.795Z,792.32
2019-05-15T07:20:28.619Z,792.18
2019-05-15T07:21:28.607Z,792.11
2019-05-15T07:22:28.947Z,792.07
2019-05-15T07:23:30.798Z,792.18
2019-05-15T07:24:28.965Z,792.29
2019-05-15T07:25:29.328Z,792.37
2019-05-15T07:26:29.061Z,792.17
2019-05-15T07:27:28.473Z,791.99
2019-05-15T07:28:28.840Z,791.76
2019-05-15T07:29:29.197Z,791.51
2019-05-15T07:30:28.781Z,791.52
2019-05-15T07:31:28.882Z,791.70
2019-05-15T07:32:28.636Z,791.70
2019-05-15T07:33:39.562Z,791.66
2019-05-15T07:34:28.480Z,791.44
2019-05-15T07:35:28.805Z,791.50
2019-05-15T07:36:28.775Z,791.46
2019-05-15T07:37:28.994Z,791.44
2019-05-15T07:38:28.344Z,791.45
2019-05-15T07:39:28.846Z,791.46
2019-05-15T07:40:29.371Z,791.53
2019-05-15T07:41:28.561Z,791.41
2019-05-15T07:42:29.094Z,791.25
2019-05-15T07:43:28.214Z,791.13
2019-05-15T07:44:28.367Z,791.21
2019-05-15T07:45:28.333Z,791.17
2019-05-15T07:46:28.882Z,791.24
2019-05-15T07:47:29.212Z,791.06
2019-05-15T07:48:29.158Z,790.88
2019-05-15T07:49:28.903Z,791.19
2019-05-15T07:50:29.965Z,791.25
2019-05-15T07:51:28.676Z,791.43
2019-05-15T07:52:28.859Z,791.30
2019-05-15T07:53:28.905Z,791.19
2019-05-15T07:54:28.875Z,791.20
2019-05-15T07:55:29.617Z,790.98
2019-05-15T07:56:28.896Z,790.92
2019-05-15T07:57:29.944Z,790.84
2019-05-15T07:58:28.054Z,790.63
2019-05-15T07:59:28.118Z,790.46
2019-05-15T08:00:28.899Z,790.54
2019-05-15T08:01:29.109Z,790.64
2019-05-15T08:02:28.829Z,790.64
2019-05-15T08:03:29.192Z,790.52
2019-05-15T08:04:30.589Z,790.61
2019-05-15T08:05:30.755Z,790.73
2019-05-15T08:06:28.977Z,790.82
2019-05-15T08:07:28.018Z,790.94
2019-05-15T08:08:29.038Z,790.96
2019-05-15T08:09:28.432Z,791.24
2019-05-15T08:10:28.504Z,791.21
2019-05-15T08:11:28.554Z,790.96
2019-05-15T08:12:28.374Z,790.78
2019-05-15T08:13:28.973Z,790.74
2019-05-15T08:14:29.125Z,790.66
2019-05-15T08:15:28.661Z,790.46
2019-05-15T08:16:28.694Z,790.20
2019-05-15T08:17:28.957Z,790.15
2019-05-15T08:18:28.551Z,790.04
2019-05-15T08:19:28.874Z,789.86
2019-05-15T08:20:28.929Z,789.67
2019-05-15T08:21:29.251Z,789.52
2019-05-15T08:22:28.475Z,789.50
2019-05-15T08:23:28.846Z,789.36
2019-05-15T08:24:29.784Z,789.55
2019-05-15T08:25:34.635Z,789.62
2019-05-15T08:26:28.318Z,789.59
2019-05-15T08:27:29.862Z,789.67
2019-05-15T08:28:28.738Z,789.37
2019-05-15T08:29:28.824Z,789.82
2019-05-15T08:30:28.853Z,789.69
2019-05-15T08:31:28.835Z,789.41
2019-05-15T08:32:27.999Z,789.50
2019-05-15T08:33:28.034Z,789.43
2019-05-15T08:34:28.223Z,789.33
2019-05-15T08:35:29.154Z,789.32
2019-05-15T08:36:28.006Z,789.61
2019-05-15T08:37:29.278Z,789.59
2019-05-15T08:38:28.844Z,789.64
2019-05-15T08:39:28.453Z,789.55
2019-05-15T08:40:28.498Z,789.49
2019-05-15T08:41:29.569Z,789.37
2019-05-15T08:42:28.099Z,789.21
2019-05-15T08:43:29.133Z,789.17
2019-05-15T08:44:29.330Z,789.16
2019-05-15T08:45:28.261Z,789.29
2019-05-15T08:46:27.980Z,789.14
2019-05-15T08:47:29.708Z,789.04
2019-05-15T08:48:27.784Z,788.95
2019-05-15T08:49:28.398Z,788.95
2019-05-15T08:50:28.737Z,789.03
2019-05-15T08:51:28.436Z,789.36
2019-05-15T08:52:28.268Z,789.29
2019-05-15T08:53:28.483Z,789.04
2019-05-15T08:54:29.021Z,788.77
2019-05-15T08:55:28.173Z,788.77
2019-05-15T08:56:28.875Z,788.97
2019-05-15T08:57:28.944Z,788.91
2019-05-15T08:58:29.040Z,788.72
2019-05-15T08:59:29.502Z,788.93
2019-05-15T09:00:29.396Z,789.18
2019-05-15T09:01:28.777Z,789.28
2019-05-15T09:02:28.753Z,789.16
2019-05-15T09:03:28.629Z,789.02
2019-05-15T09:04:33.869Z,788.96
2019-05-15T09:05:28.265Z,788.98
2019-05-15T09:06:29.108Z,789.06
2019-05-15T09:08:39.021Z,789.32
2019-05-15T09:09:38.680Z,789.34
2019-05-15T09:10:39.645Z,788.99
2019-05-15T09:11:39.363Z,788.86
2019-05-15T09:12:39.055Z,788.91
2019-05-15T09:13:43.069Z,788.50
2019-05-15T09:14:40.063Z,788.42
2019-05-15T09:15:39.674Z,788.41
2019-05-15T09:16:38.900Z,788.33
2019-05-15T09:17:39.881Z,788.64
2019-05-15T09:18:39.303Z,788.30
2019-05-15T09:19:38.843Z,787.90
2019-05-15T09:20:38.660Z,787.64
2019-05-15T09:21:38.955Z,787.57
2019-05-15T09:22:38.543Z,787.81
2019-05-15T09:23:38.976Z,788.21
2019-05-15T09:24:38.535Z,788.12
2019-05-15T09:25:38.957Z,788.69
2019-05-15T09:26:40.429Z,788.85
2019-05-15T09:27:38.583Z,788.63
2019-05-15T09:28:39.211Z,788.30
2019-05-15T09:29:38.466Z,788.18
2019-05-15T09:30:39.173Z,788.12
2019-05-15T09:31:39.188Z,788.08
2019-05-15T09:32:39.309Z,787.74
2019-05-15T09:33:38.832Z,787.82
2019-05-15T09:34:50.915Z,787.88
2019-05-15T09:35:39.382Z,788.17
2019-05-15T09:36:42.307Z,788.18
2019-05-15T09:37:38.827Z,787.97
2019-05-15T09:38:39.096Z,787.38
2019-05-15T09:39:38.346Z,787.07
2019-05-15T09:40:46.011Z,787.31
2019-05-15T09:41:38.329Z,787.81
2019-05-15T09:42:38.883Z,787.96
2019-05-15T09:43:39.539Z,788.03
2019-05-15T09:44:39.133Z,787.94
2019-05-15T09:45:38.286Z,787.97
2019-05-15T09:46:38.460Z,787.94
2019-05-15T09:47:39.492Z,787.58
2019-05-15T09:48:39.083Z,787.33
2019-05-15T09:49:39.122Z,787.11
2019-05-15T09:50:39.666Z,787.01
2019-05-15T09:51:38.610Z,786.87
2019-05-15T09:52:38.869Z,786.75
2019-05-15T09:53:39.431Z,786.76
2019-05-15T09:54:38.810Z,786.74
2019-05-15T09:55:38.347Z,786.64
2019-05-15T09:56:38.567Z,786.98
2019-05-15T09:57:38.763Z,787.21
2019-05-15T09:58:38.386Z,787.33
2019-05-15T09:59:39.070Z,787.10
2019-05-15T10:00:38.584Z,786.78
2019-05-15T10:01:39.467Z,786.68
2019-05-15T10:02:39.487Z,786.60
2019-05-15T10:03:39.539Z,786.69
2019-05-15T10:04:39.061Z,786.82
2019-05-15T10:05:38.838Z,786.63
2019-05-15T10:06:39.128Z,786.46
2019-05-15T10:07:40.489Z,786.33
2019-05-15T10:08:39.774Z,786.44
2019-05-15T10:09:38.881Z,786.31
2019-05-15T10:10:38.231Z,786.37
2019-05-15T10:11:38.336Z,786.35
2019-05-15T10:12:38.631Z,786.43
2019-05-15T10:13:38.570Z,786.33
2019-05-15T10:14:38.611Z,786.38
2019-05-15T10:15:39.010Z,786.45
2019-05-15T10:16:37.964Z,786.40
2019-05-15T10:17:37.917Z,786.43
2019-05-15T10:18:39.019Z,786.30
2019-05-15T10:19:37.902Z,786.15
2019-05-15T10:20:37.891Z,786.27
2019-05-15T10:21:40.068Z,786.30
2019-05-15T10:22:37.878Z,786.75
2019-05-15T10:23:40.357Z,786.89
2019-05-15T10:24:37.845Z,786.49
2019-05-15T10:25:38.919Z,786.16
2019-05-15T10:26:39.333Z,786.15
2019-05-15T10:27:39.777Z,786.30
2019-05-15T10:28:39.178Z,786.49
2019-05-15T10:29:38.775Z,786.77
2019-05-15T10:30:39.451Z,786.83
2019-05-15T10:31:38.921Z,786.84
2019-05-15T10:32:39.553Z,786.54
2019-05-15T10:33:39.345Z,786.18
2019-05-15T10:34:38.770Z,785.84
2019-05-15T10:35:39.292Z,785.74
2019-05-15T10:36:38.656Z,785.77
2019-05-15T10:37:38.977Z,785.80
2019-05-15T10:38:39.220Z,785.83
2019-05-15T10:39:38.473Z,785.83
2019-05-15T10:40:39.500Z,785.49
2019-05-15T10:41:38.841Z,785.36
2019-05-15T10:42:39.826Z,785.50
2019-05-15T10:43:44.526Z,785.40
2019-05-15T10:44:39.194Z,785.31
2019-05-15T10:45:42.368Z,785.36
2019-05-15T10:46:38.278Z,785.28
2019-05-15T10:47:38.808Z,784.96
2019-05-15T10:48:38.517Z,784.72
2019-05-15T10:49:38.940Z,784.60
2019-05-15T10:50:38.746Z,784.99
2019-05-15T10:51:39.666Z,785.33
2019-05-15T10:52:38.246Z,785.37
2019-05-15T10:53:39.163Z,785.61
2019-05-15T10:54:38.154Z,785.53
2019-05-15T10:55:39.503Z,785.28
2019-05-15T10:56:38.522Z,785.21
2019-05-15T10:57:43.380Z,785.27
2019-05-15T10:58:39.285Z,785.42
2019-05-15T10:59:37.460Z,785.16
2019-05-15T11:00:37.467Z,784.73
2019-05-15T11:01:38.636Z,784.82
2019-05-15T11:02:39.496Z,784.63
2019-05-15T11:03:39.699Z,784.17
2019-05-15T11:04:39.301Z,783.95
2019-05-15T11:05:44.870Z,783.78
2019-05-15T11:06:38.378Z,783.66
2019-05-15T11:07:39.320Z,783.69
2019-05-15T11:09:48.909Z,783.89
2019-05-15T11:10:49.311Z,783.73
2019-05-15T11:11:51.136Z,784.12
2019-05-15T11:12:47.670Z,784.37
2019-05-15T11:13:47.507Z,784.03
2019-05-15T11:14:47.507Z,783.76
2019-05-15T11:15:49.242Z,783.39
2019-05-15T11:16:48.613Z,783.43
2019-05-15T11:17:49.168Z,783.33
2019-05-15T11:18:48.171Z,783.38
2019-05-15T11:19:49.938Z,783.71
2019-05-15T11:20:48.691Z,783.73
2019-05-15T11:21:48.529Z,783.74
2019-05-15T11:22:50.000Z,783.58
2019-05-15T11:23:49.404Z,783.51
2019-05-15T11:24:50.835Z,783.67
2019-05-15T11:25:48.946Z,783.95
2019-05-15T11:26:49.980Z,784.07
2019-05-15T11:27:48.455Z,784.28
2019-05-15T11:28:49.788Z,784.36
2019-05-15T11:29:47.799Z,784.21
2019-05-15T11:30:48.969Z,784.06
2019-05-15T11:31:48.750Z,784.18
2019-05-15T11:32:48.703Z,784.08
2019-05-15T11:33:49.289Z,783.69
2019-05-15T11:34:49.273Z,783.74
2019-05-15T11:35:58.145Z,783.56
2019-05-15T11:36:48.275Z,783.68
2019-05-15T11:37:56.060Z,783.92
2019-05-15T11:38:48.568Z,784.02
2019-05-15T11:39:47.526Z,784.54
2019-05-15T11:40:47.219Z,784.75
2019-05-15T11:41:49.300Z,784.85
2019-05-15T11:42:48.721Z,785.08
2019-05-15T11:43:49.595Z,784.96
2019-05-15T11:44:48.408Z,784.84
2019-05-15T11:45:48.199Z,784.46
2019-05-15T11:46:49.395Z,784.42
2019-05-15T11:47:48.336Z,784.40
2019-05-15T11:48:49.691Z,784.40
2019-05-15T11:49:47.126Z,784.10
2019-05-15T11:50:47.097Z,783.66
2019-05-15T11:51:49.224Z,783.27
2019-05-15T11:52:47.078Z,783.18
2019-05-15T11:53:49.228Z,783.30
2019-05-15T11:54:49.360Z,783.52
2019-05-15T11:55:48.017Z,783.51
2019-05-15T11:56:49.056Z,783.64
2019-05-15T11:57:50.411Z,783.76
2019-05-15T11:58:47.020Z,783.36
2019-05-15T11:59:54.869Z,783.15
2019-05-15T12:00:49.080Z,783.18
2019-05-15T12:01:48.863Z,783.42
2019-05-15T12:02:46.973Z,783.42
2019-05-15T12:03:46.979Z,783.13
2019-05-15T12:04:46.940Z,783.03
2019-05-15T12:05:46.933Z,782.97
2019-05-15T12:06:58.741Z,782.67
2019-05-15T12:07:47.754Z,782.21
2019-05-15T12:08:46.917Z,781.68
2019-05-15T12:09:46.877Z,781.41
2019-05-15T12:10:46.871Z,781.44
2019-05-15T12:11:46.864Z,781.56
2019-05-15T12:12:49.504Z,781.56
2019-05-15T12:13:46.857Z,782.12
2019-05-15T12:14:49.500Z,782.36
2019-05-15T12:15:48.442Z,783.01
2019-05-15T12:17:02.264Z,783.18
2019-05-15T12:17:48.478Z,783.28
2019-05-15T12:18:48.376Z,783.22
2019-05-15T12:19:54.904Z,783.21
2019-05-15T12:20:48.681Z,783.42
2019-05-15T12:21:48.850Z,783.29
2019-05-15T12:22:48.478Z,782.83
2019-05-15T12:23:48.813Z,783.01
2019-05-15T12:24:49.876Z,783.06
2019-05-15T12:25:48.751Z,782.88
2019-05-15T12:26:48.909Z,783.39
2019-05-15T12:27:49.053Z,783.26
2019-05-15T12:28:48.918Z,783.08
2019-05-15T12:29:49.154Z,783.44
2019-05-15T12:30:49.218Z,783.65
2019-05-15T12:31:48.995Z,784.11
2019-05-15T12:32:49.355Z,784.48
2019-05-15T12:33:48.966Z,784.56
2019-05-15T12:34:49.505Z,784.52
2019-05-15T12:35:50.283Z,784.35